createdAt,value
2022-10-17T00:01:28.727Z,14.00
2022-10-17T00:04:14.554Z,13.90
2022-10-17T00:07:00.617Z,13.90
2022-10-17T00:09:46.557Z,13.80
2022-10-17T00:12:32.602Z,13.90
2022-10-17T00:15:20.257Z,13.80
2022-10-17T00:18:06.133Z,13.80
2022-10-17T00:20:52.613Z,13.80
2022-10-17T00:23:38.565Z,13.60
2022-10-17T00:26:24.637Z,13.50
2022-10-17T00:29:11.150Z,13.30
2022-10-17T00:31:57.882Z,13.20
2022-10-17T00:34:44.551Z,13.20
2022-10-17T00:37:32.085Z,13.30
2022-10-17T00:40:18.428Z,13.30
2022-10-17T00:43:18.237Z,13.30
2022-10-17T00:46:04.625Z,13.40
2022-10-17T00:48:54.428Z,13.30
2022-10-17T00:51:43.958Z,13.30
2022-10-17T00:54:34.592Z,13.20
2022-10-17T00:57:20.946Z,13.10
2022-10-17T01:00:09.682Z,13.10
2022-10-17T01:02:56.065Z,13.00
2022-10-17T01:05:42.764Z,13.00
2022-10-17T01:08:28.614Z,13.00
2022-10-17T01:11:27.863Z,13.00
2022-10-17T01:14:35.375Z,13.00
2022-10-17T01:17:21.646Z,13.00
2022-10-17T01:20:40.609Z,13.00
2022-10-17T01:23:57.921Z,12.80
2022-10-17T01:27:09.658Z,12.70
2022-10-17T01:30:20.424Z,12.60
2022-10-17T01:33:15.703Z,12.60
2022-10-17T01:36:38.800Z,12.60
2022-10-17T01:39:47.978Z,12.60
2022-10-17T01:42:59.629Z,12.50
2022-10-17T01:45:49.636Z,12.60
2022-10-17T01:48:37.985Z,12.80
2022-10-17T01:51:30.908Z,12.90
2022-10-17T01:54:26.928Z,12.90
2022-10-17T01:57:29.730Z,13.00
2022-10-17T02:00:20.937Z,13.10
2022-10-17T02:03:16.630Z,13.00
2022-10-17T02:06:03.537Z,12.90
2022-10-17T02:08:51.475Z,12.70
2022-10-17T02:11:39.511Z,12.50
2022-10-17T02:14:32.809Z,12.50
2022-10-17T02:17:21.659Z,12.70
2022-10-17T02:20:22.967Z,12.90
2022-10-17T02:23:33.732Z,13.10
2022-10-17T02:26:26.867Z,13.10
2022-10-17T02:29:23.612Z,13.00
2022-10-17T02:32:35.145Z,12.80
2022-10-17T02:35:24.180Z,12.90
2022-10-17T02:38:12.251Z,13.00
2022-10-17T02:40:58.966Z,13.00
2022-10-17T02:43:47.700Z,13.00
2022-10-17T02:46:35.779Z,13.10
2022-10-17T02:49:25.986Z,13.20
2022-10-17T02:52:24.172Z,13.20
2022-10-17T02:55:25.163Z,13.10
2022-10-17T02:58:18.645Z,13.10
2022-10-17T03:01:05.298Z,12.90
2022-10-17T03:03:51.937Z,12.90
2022-10-17T03:06:38.713Z,12.90
2022-10-17T03:09:25.138Z,12.90
2022-10-17T03:12:10.909Z,12.80
2022-10-17T03:14:57.008Z,12.80
2022-10-17T03:17:43.193Z,12.80
2022-10-17T03:20:29.817Z,12.70
2022-10-17T03:23:16.030Z,12.70
2022-10-17T03:26:06.580Z,12.70
2022-10-17T03:28:54.640Z,12.70
2022-10-17T03:31:42.302Z,12.60
2022-10-17T03:34:29.882Z,12.50
2022-10-17T03:37:16.575Z,12.50
2022-10-17T03:40:03.680Z,12.40
2022-10-17T03:42:50.901Z,12.30
2022-10-17T03:45:37.497Z,12.30
2022-10-17T03:48:24.751Z,12.40
2022-10-17T03:51:11.958Z,12.20
2022-10-17T03:54:04.267Z,12.00
2022-10-17T03:56:50.298Z,11.90
2022-10-17T03:59:38.699Z,11.60
2022-10-17T04:02:31.150Z,11.50
2022-10-17T04:05:17.861Z,11.40
2022-10-17T04:08:04.937Z,11.50
2022-10-17T04:11:19.815Z,11.60
2022-10-17T04:14:06.936Z,11.60
2022-10-17T04:16:53.601Z,11.50
2022-10-17T04:19:40.709Z,11.40
2022-10-17T04:22:27.760Z,11.40
2022-10-17T04:25:14.124Z,11.40
2022-10-17T04:28:03.581Z,11.50
2022-10-17T04:30:59.945Z,11.60
2022-10-17T04:33:51.964Z,11.70
2022-10-17T04:36:37.976Z,11.70
2022-10-17T04:39:23.902Z,11.70
2022-10-17T04:42:11.283Z,11.70
2022-10-17T04:44:57.717Z,11.70
2022-10-17T04:47:45.246Z,11.70
2022-10-17T04:50:31.093Z,11.70
2022-10-17T04:53:45.456Z,11.60
2022-10-17T04:56:31.329Z,11.50
2022-10-17T04:59:17.404Z,11.60
2022-10-17T05:02:07.153Z,11.60
2022-10-17T05:04:54.062Z,11.60
2022-10-17T05:07:41.282Z,11.60
2022-10-17T05:10:44.008Z,11.60
2022-10-17T05:13:30.058Z,11.60
2022-10-17T05:16:16.284Z,11.50
2022-10-17T05:19:03.141Z,11.60
2022-10-17T05:21:55.646Z,11.60
2022-10-17T05:24:42.289Z,11.60
2022-10-17T05:27:29.170Z,11.50
2022-10-17T05:30:15.222Z,11.40
2022-10-17T05:33:01.185Z,11.20
2022-10-17T05:35:47.740Z,11.00
2022-10-17T05:38:34.912Z,10.90
2022-10-17T05:41:22.241Z,10.90
2022-10-17T05:44:08.405Z,11.00
2022-10-17T05:47:00.416Z,11.00
2022-10-17T05:49:51.412Z,11.10
2022-10-17T05:52:45.066Z,11.10
2022-10-17T05:55:34.881Z,11.10
2022-10-17T05:58:22.502Z,11.20
2022-10-17T06:01:19.216Z,11.10
2022-10-17T06:04:05.104Z,11.20
2022-10-17T06:06:52.347Z,11.10
2022-10-17T06:09:38.917Z,11.00
2022-10-17T06:12:25.604Z,11.10
2022-10-17T06:15:12.939Z,11.10
2022-10-17T06:18:04.169Z,11.30
2022-10-17T06:20:50.240Z,11.40
2022-10-17T06:23:38.252Z,11.10
2022-10-17T06:26:36.620Z,11.00
2022-10-17T06:29:25.071Z,11.10
2022-10-17T06:32:14.905Z,11.20
2022-10-17T06:35:04.381Z,11.40
2022-10-17T06:37:50.926Z,11.60
2022-10-17T06:40:37.257Z,11.70
2022-10-17T06:43:27.843Z,11.80
2022-10-17T06:46:34.593Z,11.90
2022-10-17T06:49:23.874Z,11.90
2022-10-17T06:52:30.122Z,11.90
2022-10-17T06:55:53.940Z,12.00
2022-10-17T06:58:50.757Z,12.20
2022-10-17T07:01:49.632Z,12.50
2022-10-17T07:04:36.103Z,12.90
2022-10-17T07:07:22.066Z,13.30
2022-10-17T07:10:08.680Z,13.70
2022-10-17T07:12:55.863Z,14.30
2022-10-17T07:15:42.351Z,14.80
2022-10-17T07:18:28.978Z,15.20
2022-10-17T07:21:14.956Z,15.60
2022-10-17T07:24:00.920Z,15.80
2022-10-17T07:26:47.510Z,16.00
2022-10-17T07:29:33.961Z,16.20
2022-10-17T07:32:26.233Z,16.20
2022-10-17T07:35:13.606Z,16.30
2022-10-17T07:38:00.609Z,16.50
2022-10-17T07:40:53.392Z,16.70
2022-10-17T07:43:41.677Z,16.90
2022-10-17T07:46:28.024Z,16.90
2022-10-17T07:49:14.362Z,16.80
2022-10-17T07:52:00.768Z,16.70
2022-10-17T07:54:46.690Z,16.70
2022-10-17T07:57:32.749Z,16.70
2022-10-17T08:00:18.766Z,16.70
2022-10-17T08:03:04.950Z,16.70
2022-10-17T08:05:50.857Z,16.70
2022-10-17T08:08:36.815Z,16.60
2022-10-17T08:11:23.250Z,16.70
2022-10-17T08:14:09.569Z,16.70
2022-10-17T08:16:55.689Z,16.90
2022-10-17T08:19:41.849Z,17.00
2022-10-17T08:22:28.393Z,17.20
2022-10-17T08:25:14.520Z,17.20
2022-10-17T08:28:00.600Z,17.30
2022-10-17T08:30:46.537Z,17.60
2022-10-17T08:33:33.345Z,17.80
2022-10-17T08:36:20.845Z,17.90
2022-10-17T08:39:06.918Z,18.10
2022-10-17T08:42:33.420Z,18.20
2022-10-17T08:45:44.999Z,18.50
2022-10-17T08:48:45.621Z,18.80
2022-10-17T08:51:37.077Z,19.10
2022-10-17T08:54:38.978Z,19.40
2022-10-17T08:57:25.561Z,19.60
2022-10-17T09:00:21.254Z,19.90
2022-10-17T09:03:26.886Z,20.10
2022-10-17T09:06:24.362Z,20.30
2022-10-17T09:09:48.586Z,20.80
2022-10-17T09:12:43.958Z,21.00
2022-10-17T09:15:55.134Z,21.40
2022-10-17T09:18:45.677Z,21.50
2022-10-17T09:21:47.099Z,21.40
2022-10-17T09:24:46.194Z,21.70
2022-10-17T09:28:15.167Z,21.90
2022-10-17T09:31:03.064Z,21.60
2022-10-17T09:33:55.111Z,21.60
2022-10-17T09:36:42.533Z,21.80
2022-10-17T09:39:32.091Z,22.10
2022-10-17T09:42:27.562Z,22.40
2022-10-17T09:45:26.793Z,22.40
2022-10-17T09:48:19.210Z,22.30
2022-10-17T09:51:22.023Z,22.10
2022-10-17T09:54:25.151Z,22.30
2022-10-17T09:57:13.274Z,22.30
2022-10-17T10:00:06.393Z,22.60
2022-10-17T10:03:19.753Z,22.40
2022-10-17T10:06:13.449Z,22.20
2022-10-17T10:08:59.380Z,22.10
2022-10-17T10:11:52.572Z,22.40
2022-10-17T10:14:39.788Z,22.70
2022-10-17T10:17:29.778Z,23.00
2022-10-17T10:20:37.650Z,23.30
2022-10-17T10:23:24.638Z,23.20
2022-10-17T10:26:27.926Z,23.00
2022-10-17T10:29:34.269Z,22.90
2022-10-17T10:32:22.448Z,22.80
2022-10-17T10:35:33.374Z,23.10
2022-10-17T10:38:21.249Z,23.10
2022-10-17T10:41:10.064Z,23.30
2022-10-17T10:43:56.616Z,23.30
2022-10-17T10:46:42.857Z,23.40
2022-10-17T10:49:30.804Z,23.50
2022-10-17T10:52:43.969Z,23.70
2022-10-17T10:55:55.133Z,24.00
2022-10-17T10:59:04.812Z,24.10
2022-10-17T11:02:16.045Z,24.30
2022-10-17T11:05:05.142Z,24.30
2022-10-17T11:08:11.770Z,24.40
2022-10-17T11:11:17.916Z,24.70
2022-10-17T11:14:29.030Z,24.70
2022-10-17T11:17:40.503Z,24.40
2022-10-17T11:20:44.957Z,24.70
2022-10-17T11:24:09.079Z,24.90
2022-10-17T11:27:01.277Z,25.20
2022-10-17T11:29:47.539Z,25.40
2022-10-17T11:32:45.463Z,25.60
2022-10-17T11:35:40.597Z,25.80
2022-10-17T11:38:39.966Z,26.10
2022-10-17T11:41:38.754Z,26.10
2022-10-17T11:44:36.385Z,26.10
2022-10-17T11:47:29.010Z,26.20
2022-10-17T11:53:35.029Z,26.20
2022-10-17T11:56:59.765Z,26.10
2022-10-17T12:00:03.488Z,26.10
2022-10-17T12:03:22.153Z,26.10
2022-10-17T12:06:29.625Z,25.60
2022-10-17T12:09:43.719Z,25.40
2022-10-17T12:12:33.301Z,25.40
2022-10-17T12:15:19.751Z,25.30
2022-10-17T12:18:15.260Z,25.30
2022-10-17T12:21:01.577Z,25.50
2022-10-17T12:23:55.326Z,26.10
2022-10-17T12:26:41.406Z,26.50
2022-10-17T12:29:30.095Z,26.90
2022-10-17T12:32:16.805Z,26.90
2022-10-17T12:35:02.882Z,27.30
2022-10-17T12:37:48.672Z,28.00
2022-10-17T12:40:37.580Z,28.30
2022-10-17T12:43:29.532Z,28.10
2022-10-17T12:46:53.533Z,27.90
2022-10-17T12:49:42.622Z,27.70
2022-10-17T12:52:31.946Z,27.60
2022-10-17T12:55:19.887Z,27.60
2022-10-17T12:58:16.121Z,27.90
2022-10-17T13:01:23.220Z,27.70
2022-10-17T13:04:10.709Z,27.70
2022-10-17T13:07:00.661Z,27.80
2022-10-17T13:09:47.671Z,28.00
2022-10-17T13:12:41.175Z,28.10
2022-10-17T13:15:28.432Z,28.40
2022-10-17T13:18:28.819Z,28.70
2022-10-17T13:21:16.392Z,28.80
2022-10-17T13:24:20.438Z,28.90
2022-10-17T13:27:26.895Z,28.90
2022-10-17T13:30:31.216Z,28.80
2022-10-17T13:33:39.495Z,29.10
2022-10-17T13:36:26.858Z,29.40
2022-10-17T13:39:19.672Z,29.50
2022-10-17T13:42:40.526Z,29.40
2022-10-17T13:45:36.835Z,29.40
2022-10-17T13:48:26.801Z,29.20
2022-10-17T13:51:13.267Z,29.20
2022-10-17T13:53:59.062Z,29.50
2022-10-17T13:56:45.633Z,29.80
2022-10-17T13:59:40.957Z,30.10
2022-10-17T14:02:30.274Z,30.80
2022-10-17T14:05:20.166Z,31.50
2022-10-17T14:08:12.707Z,32.10
2022-10-17T14:11:01.478Z,33.00
2022-10-17T14:13:53.335Z,33.70
2022-10-17T14:16:42.366Z,34.00
2022-10-17T14:19:31.666Z,33.80
2022-10-17T14:22:27.546Z,33.30
2022-10-17T14:25:35.720Z,32.30
2022-10-17T14:28:23.252Z,31.30
2022-10-17T14:31:33.847Z,30.50
2022-10-17T14:34:24.992Z,29.50
2022-10-17T14:37:32.565Z,28.90
2022-10-17T14:40:23.713Z,28.20
2022-10-17T14:43:21.913Z,27.60
2022-10-17T14:46:15.385Z,27.30
2022-10-17T14:49:19.390Z,27.00
2022-10-17T14:52:18.780Z,26.70
2022-10-17T14:55:24.949Z,26.50
2022-10-17T14:58:18.776Z,26.30
2022-10-17T15:01:05.629Z,26.20
2022-10-17T15:03:52.364Z,26.10
2022-10-17T15:06:40.566Z,26.00
2022-10-17T15:09:28.871Z,25.80
2022-10-17T15:12:17.927Z,25.70
2022-10-17T15:15:04.513Z,25.60
2022-10-17T15:17:50.834Z,25.50
2022-10-17T15:20:38.146Z,25.50
2022-10-17T15:23:24.106Z,25.40
2022-10-17T15:26:15.525Z,25.10
2022-10-17T15:29:02.211Z,24.90
2022-10-17T15:31:48.369Z,24.70
2022-10-17T15:34:34.417Z,24.60
2022-10-17T15:37:24.039Z,24.50
2022-10-17T15:40:36.614Z,24.50
2022-10-17T15:43:22.948Z,24.50
2022-10-17T15:46:14.733Z,24.40
2022-10-17T15:49:12.713Z,24.30
2022-10-17T15:51:58.922Z,24.10
2022-10-17T15:54:45.002Z,23.80
2022-10-17T15:57:35.791Z,23.50
2022-10-17T16:00:24.105Z,23.30
2022-10-17T16:03:10.045Z,23.00
2022-10-17T16:05:56.222Z,22.70
2022-10-17T16:08:42.413Z,22.50
2022-10-17T16:11:33.445Z,22.40
2022-10-17T16:14:19.413Z,22.10
2022-10-17T16:17:05.349Z,22.00
2022-10-17T16:19:51.325Z,21.80
2022-10-17T16:22:37.833Z,21.60
2022-10-17T16:25:26.860Z,21.40
2022-10-17T16:28:12.838Z,21.20
2022-10-17T16:30:59.084Z,21.00
2022-10-17T16:33:45.352Z,20.80
2022-10-17T16:36:31.885Z,20.70
2022-10-17T16:39:18.178Z,20.60
2022-10-17T16:42:04.126Z,20.40
2022-10-17T16:44:51.460Z,20.30
2022-10-17T16:47:37.349Z,20.20
2022-10-17T16:50:24.404Z,20.00
2022-10-17T16:53:10.498Z,19.90
2022-10-17T16:56:01.266Z,19.80
2022-10-17T16:58:48.325Z,19.70
2022-10-17T17:01:34.310Z,19.60
2022-10-17T17:04:20.408Z,19.50
2022-10-17T17:07:06.529Z,19.40
2022-10-17T17:09:53.689Z,19.30
2022-10-17T17:12:39.873Z,19.10
2022-10-17T17:15:25.885Z,19.00
2022-10-17T17:18:14.066Z,18.90
2022-10-17T17:21:01.141Z,18.80
2022-10-17T17:23:47.379Z,18.70
2022-10-17T17:26:38.956Z,18.60
2022-10-17T17:29:25.593Z,18.40
2022-10-17T17:32:11.686Z,18.30
2022-10-17T17:34:57.712Z,18.30
2022-10-17T17:37:43.755Z,18.20
2022-10-17T17:40:29.961Z,18.20
2022-10-17T17:43:16.362Z,18.10
2022-10-17T17:46:02.773Z,18.00
2022-10-17T17:48:49.964Z,17.90
2022-10-17T17:51:37.659Z,17.60
2022-10-17T17:54:23.710Z,17.50
2022-10-17T17:57:09.445Z,17.40
2022-10-17T17:59:55.372Z,17.40
2022-10-17T18:02:44.349Z,17.30
2022-10-17T18:05:30.904Z,17.30
2022-10-17T18:08:16.838Z,17.20
2022-10-17T18:11:03.650Z,16.90
2022-10-17T18:13:58.087Z,16.80
2022-10-17T18:16:44.093Z,16.60
2022-10-17T18:19:30.008Z,16.40
2022-10-17T18:22:16.104Z,16.40
2022-10-17T18:25:02.402Z,16.40
2022-10-17T18:27:48.809Z,16.50
2022-10-17T18:30:38.580Z,16.60
2022-10-17T18:33:25.014Z,16.50
2022-10-17T18:36:13.622Z,16.50
2022-10-17T18:39:00.657Z,16.60
2022-10-17T18:41:46.709Z,16.40
2022-10-17T18:44:32.637Z,16.30
2022-10-17T18:47:18.734Z,16.20
2022-10-17T18:50:05.034Z,16.20
2022-10-17T18:52:51.574Z,16.20
2022-10-17T18:55:39.669Z,16.20
2022-10-17T18:58:25.958Z,16.20
2022-10-17T19:01:17.985Z,16.20
2022-10-17T19:04:04.091Z,16.20
2022-10-17T19:06:50.007Z,16.00
2022-10-17T19:09:36.054Z,15.80
2022-10-17T19:12:21.822Z,15.70
2022-10-17T19:15:08.200Z,15.60
2022-10-17T19:17:54.066Z,15.50
2022-10-17T19:20:40.014Z,15.50
2022-10-17T19:23:25.958Z,15.50
2022-10-17T19:26:12.781Z,15.50
2022-10-17T19:29:00.467Z,15.50
2022-10-17T19:31:47.766Z,15.60
2022-10-17T19:34:35.173Z,15.60
2022-10-17T19:37:21.109Z,15.50
2022-10-17T19:40:08.232Z,15.40
2022-10-17T19:42:55.010Z,15.40
2022-10-17T19:45:40.820Z,15.30
2022-10-17T19:48:27.436Z,15.10
2022-10-17T19:51:16.027Z,15.10
2022-10-17T19:54:02.218Z,15.10
2022-10-17T19:56:48.496Z,15.10
2022-10-17T19:59:34.394Z,15.10
2022-10-17T20:02:20.400Z,15.20
2022-10-17T20:05:21.651Z,15.20
2022-10-17T20:08:09.662Z,15.30
2022-10-17T20:10:55.641Z,15.30
2022-10-17T20:13:42.346Z,15.40
2022-10-17T20:16:33.615Z,15.40
2022-10-17T20:19:20.493Z,15.40
2022-10-17T20:22:06.713Z,15.50
2022-10-17T20:24:52.719Z,15.50
2022-10-17T20:27:38.721Z,15.50
2022-10-17T20:30:24.844Z,15.40
2022-10-17T20:33:13.765Z,15.30
2022-10-17T20:35:59.782Z,15.10
2022-10-17T20:38:45.795Z,15.00
2022-10-17T20:41:31.951Z,14.90
2022-10-17T20:44:18.247Z,14.70
2022-10-17T20:47:04.652Z,14.50
2022-10-17T20:49:52.787Z,14.40
2022-10-17T20:52:38.709Z,14.20
2022-10-17T20:55:24.731Z,14.10
2022-10-17T20:58:11.757Z,14.00
2022-10-17T21:00:57.870Z,13.90
2022-10-17T21:03:46.471Z,14.00
2022-10-17T21:06:33.210Z,14.20
2022-10-17T21:09:19.281Z,14.20
2022-10-17T21:12:05.712Z,14.20
2022-10-17T21:14:51.661Z,14.20
2022-10-17T21:17:37.589Z,14.20
2022-10-17T21:20:23.684Z,14.30
2022-10-17T21:23:09.631Z,14.20
2022-10-17T21:25:59.493Z,14.10
2022-10-17T21:28:47.050Z,14.20
2022-10-17T21:31:38.796Z,14.30
2022-10-17T21:34:25.289Z,14.50
2022-10-17T21:37:11.244Z,14.60
2022-10-17T21:39:57.296Z,14.70
2022-10-17T21:42:43.484Z,14.70
2022-10-17T21:45:29.388Z,14.70
2022-10-17T21:48:15.630Z,14.60
2022-10-17T21:51:05.011Z,14.70
2022-10-17T21:53:52.681Z,14.70
2022-10-17T21:56:38.460Z,14.70
2022-10-17T21:59:24.413Z,14.60
2022-10-17T22:02:10.281Z,14.60
2022-10-17T22:04:56.396Z,14.70
2022-10-17T22:07:42.556Z,14.60
2022-10-17T22:10:28.465Z,14.50
2022-10-17T22:13:14.468Z,14.40
2022-10-17T22:16:08.102Z,14.40
2022-10-17T22:19:05.878Z,14.40
2022-10-17T22:21:53.553Z,14.40
2022-10-17T22:24:39.744Z,14.40
2022-10-17T22:27:25.745Z,14.40
2022-10-17T22:30:11.984Z,14.30
2022-10-17T22:32:58.090Z,14.20
2022-10-17T22:35:45.184Z,14.20
2022-10-17T22:38:31.367Z,14.20
2022-10-17T22:41:17.338Z,14.00
2022-10-17T22:44:03.553Z,14.10
2022-10-17T22:46:49.944Z,14.10
2022-10-17T22:49:35.557Z,14.10
2022-10-17T22:52:21.526Z,14.00
2022-10-17T22:55:09.809Z,14.00
2022-10-17T22:57:56.041Z,14.00
2022-10-17T23:00:41.869Z,14.00
2022-10-17T23:03:29.734Z,14.00
2022-10-17T23:06:16.344Z,14.00
2022-10-17T23:09:03.185Z,14.00
2022-10-17T23:11:49.185Z,13.90
2022-10-17T23:14:37.557Z,13.90
2022-10-17T23:17:23.474Z,14.00
2022-10-17T23:20:09.762Z,14.00
2022-10-17T23:22:56.122Z,14.00
2022-10-17T23:25:43.112Z,13.80
2022-10-17T23:28:29.247Z,13.70
2022-10-17T23:31:18.138Z,13.60
2022-10-17T23:34:04.265Z,13.60
2022-10-17T23:36:52.566Z,13.50
2022-10-17T23:39:38.633Z,13.50
2022-10-17T23:42:24.834Z,13.40
2022-10-17T23:45:11.895Z,13.50
2022-10-17T23:47:58.188Z,13.50
2022-10-17T23:50:44.057Z,13.50
2022-10-17T23:53:30.005Z,13.30
2022-10-17T23:56:16.052Z,13.10
2022-10-17T23:59:02.280Z,12.80
